Tiempo atmosférico en la estación meteorológica de Aguilar de la Frontera, Córdoba (305 m.)



Fecha
DESCASC
Temp. máxima en grados centígrados (hora)
DESCASC
Temp. mínima en grados centígrados (hora)
DESCASC
Temp. media en grados centígrados
DESCASC
Racha de viento máxima en m/sg (hora)
DESCASC
Velocidad máxima media en intervalos de 10 minutos(hora)
DESCASC
Precipitaciones diarias en mm
DESCASC
Precipitaciones de 00:00 a 06:00 en mm
DESCASC
Precipitaciones de 06:00 a 12:00 en mm
DESCASC
Precipitaciones de 12:00 a 18:00 en mm
DESCASC
Precipitaciones de 18:00 a 24:00 en mm
DESCASC
18-04-2019 17.8 (15:10) 9.3 (23:50) 13.5 12.5 (18:50) 6.11 (17:30) 14.6 0.4 0.2 1.2 12.8
17-04-2019 21.2 (12:40) 13.6 (23:50) 17.4 13.61 (11:40) 8.61 (20:30) 0 0 0 0 0
16-04-2019 25.8 (17:00) 8.2 (00:00) 17 9.44 (17:40) 5.83 (22:30) 0 0 0 0 0
15-04-2019 25.2 (17:00) 13.3 (00:00) 19.3 14.17 (20:20) 8.06 (18:20) 0 0 0 0 0
14-04-2019 25.5 (19:20) 9.5 (00:00) 17.5 4.72 (16:10) 3.06 (06:50) 0 0 0 0 0
13-04-2019 22.9 (18:00) 7.8 (00:00) 15.3 5.83 (16:00) 3.89 (17:50) 0 0 0 0 0
12-04-2019 21.5 (19:40) 5.6 (00:00) 13.5 7.78 (14:50) 4.17 (14:40) 0 0 0 0 0
11-04-2019 19.4 (16:50) 4.4 (00:00) 11.9 7.22 (17:40) 4.72 (17:40) 0 0 0 0 0
10-04-2019 17.9 (19:10) 5.8 (00:00) 11.8 8.06 (18:00) 5.28 (19:30) 0.2 0.2 0 0 0
09-04-2019 16.5 (17:00) 6.7 (00:00) 11.6 11.67 (17:40) 8.06 (18:30) 0.6 0 0 0.4 0.2
08-04-2019 15.7 (14:10) 11.9 (00:00) 13.8 11.67 (16:20) 6.67 (18:20) 11.6 2 1.2 7.6 0.8
07-04-2019 15 (15:10) 8.2 (00:00) 11.6 12.22 (21:40) 6.39 (21:40) 5.8 0 0.2 0.2 5.4
06-04-2019 13.2 (14:40) 6.1 (00:00) 9.6 18.06 (15:30) 9.17 (15:30) 7.2 0 2 3 2.2
05-04-2019 13.3 (18:10) 7.5 (00:00) 10.4 14.17 (20:00) 8.33 (16:40) 9.6 0 8.6 1 0
04-04-2019 17.8 (17:00) 2.8 (00:00) 10.3 10.83 (20:20) 6.94 (20:00) 0 0 0 0 0
03-04-2019 21 (16:10) 9.5 (00:00) 15.3 11.94 (18:40) 7.22 (16:50) 0 0 0 0 0
02-04-2019 20.9 (19:00) 8 (00:00) 14.4 4.72 (16:30) 3.06 (18:50) 0 0 0 0 0
01-04-2019 18.6 (14:30) 9.5 (00:00) 14.1 7.5 (13:20) 5 (13:20) 6.4 0.8 0.2 1.8 3.6
31-03-2019 19.7 (17:10) 11.4 (00:00) 15.6 8.33 (22:00) 4.72 (22:00) 5.8 0.4 4.8 0.2 0.4
30-03-2019 21.2 (14:00) 8 (00:00) 14.6 10.83 (18:50) 7.22 (18:50) 0 0 0 0 0
29-03-2019 20.6 (14:30) 3.2 (00:00) 11.9 9.17 (16:00) 5.83 (17:30) 0 0 0 0 0
28-03-2019 21.4 (16:20) 6.4 (00:00) 13.9 10.28 (18:30) 6.39 (09:40) 0 0 0 0 0
27-03-2019 21.8 (16:40) 6.1 (00:00) 13.9 8.89 (20:10) 5.83 (18:30) 0 0 0 0 0
26-03-2019 24.4 (14:30) 8 (00:00) 16.2 9.44 (17:50) 6.39 (17:50) 0 0 0 0 0
25-03-2019 24.3 (17:30) 7.6 (00:00) 15.9 6.94 (19:00) 4.72 (18:20) 0 0 0 0 0
24-03-2019 20.5 (13:50) 6.3 (00:00) 13.4 12.78 (11:50) 7.5 (11:50) 0 0 0 0 0
23-03-2019 20.6 (14:00) 4.7 (00:00) 12.7 11.39 (10:30) 5.56 (12:30) 0 0 0 0 0
22-03-2019 19.9 (16:40) 3.4 (00:00) 11.6 7.22 (20:10) 4.72 (21:50) 0 0 0 0 0
21-03-2019 18.1 (15:20) 3.7 (00:00) 10.9 10.83 (15:40) 5.56 (15:40) 0 0 0 0 0

Gráficas

Temp. máximas Temp. mínimas Temp. medias Precipitaciones Rachas de viento máximas Velocidades máximas media en intervalos de 10 minutos

Datos horarios

Fecha y hora oficial Temperatura (ºC) Velocidad del viento (km/h) Dirección del viento Racha (km/h) Dirección de racha Precipitación (mm) Presión (hPa) Tendencia (hPa) Humedad (%)
2019-04-19 23:00:00 11.2 2 Sudoeste 13 Oeste 0 -- -- 88
2019-04-19 22:00:00 12.3 4 Oeste 24 Sudoeste 0 -- -- 81
2019-04-19 21:00:00 14.1 12 Sudoeste 22 Sur 0 -- -- 70
2019-04-19 20:00:00 14.5 5 Norte 13 Nordeste 0 -- -- 68
2019-04-19 19:00:00 15.4 11 Nordeste 17 Este 0 -- -- 61
2019-04-19 18:00:00 17.6 10 Este 19 Este 0 -- -- 63
2019-04-19 17:00:00 16.5 7 Este 27 Este 0 -- -- 63
2019-04-19 16:00:00 16 19 Este 28 Nordeste 0 -- -- 67
2019-04-19 15:00:00 17.4 7 Oeste 16 Noroeste 0 -- -- 62
2019-04-19 14:00:00 16.5 7 Noroeste 19 Oeste 0 -- -- 62
2019-04-19 13:00:00 15.9 4 Noroeste 12 Oeste 0 -- -- 67
2019-04-19 12:00:00 14.3 5 Oeste 9 Oeste 0 -- -- 74
2019-04-19 11:00:00 12.4 2 Oeste 7 Sudeste 0 -- -- 82
2019-04-19 10:00:00 11.4 5 Este 12 Sudeste 0 -- -- 89
2019-04-19 09:00:00 10.2 7 Sudeste 11 Sudeste 0 -- -- 93
2019-04-19 08:00:00 9.5 0 Calma 10 Sudeste 0 -- -- 95
2019-04-19 07:00:00 9.6 9 Sudeste 12 Este 0 -- -- 94
2019-04-19 06:00:00 9.7 8 Sudeste 12 Sudeste 0 -- -- 95
2019-04-19 05:00:00 9.7 9 Sudeste 14 Sudeste 0 -- -- 95
2019-04-19 04:00:00 9.7 10 Sudeste 14 Sudeste 0 -- -- 95
2019-04-19 03:00:00 9.8 9 Sudeste 15 Sudeste 0 -- -- 95
2019-04-19 02:00:00 9.7 8 Sudeste 15 Sudeste 0.2 -- -- 96
2019-04-19 01:00:00 9.6 10 Sudeste 15 Sudeste 0 -- -- 96
2019-04-19 00:00:00 9.3 8 Sudeste 14 Sudeste 0 -- -- 96
2019-04-18 23:00:00 9.5 9 Sudeste 16 Este 0 -- -- 95
2019-04-18 22:00:00 10.2 7 Sudeste 17 Sudeste 0 -- -- 95
2019-04-18 21:00:00 10.2 5 Sudeste 13 Este 1.8 -- -- 95
2019-04-18 20:00:00 9.8 8 Oeste 23 Oeste 7 -- -- 96
2019-04-18 19:00:00 10 20 Oeste 45 Sudoeste 4 -- -- 93
2019-04-18 18:00:00 13 7 Norte 32 Noroeste 1.2 -- -- 85
2019-04-18 17:00:00 16.3 9 Oeste 26 Noroeste 0 -- -- 62
2019-04-18 16:00:00 16.9 9 Oeste 22 Noroeste 0 -- -- 61
2019-04-18 15:00:00 17.6 13 Noroeste 27 Oeste 0 -- -- 60
2019-04-18 14:00:00 15.7 17 Oeste 29 Oeste 0 -- -- 68
2019-04-18 13:00:00 14.4 21 Oeste 28 Sudoeste 0 -- -- 81
2019-04-18 12:00:00 15.5 4 Noroeste 15 Oeste 0 -- -- 74
2019-04-18 11:00:00 14.1 9 Sudoeste 16 Oeste 0 -- -- 80
2019-04-18 10:00:00 13.4 6 Sur 11 Sudoeste 0 -- -- 88
2019-04-18 09:00:00 11.7 2 Sur 6 Sudeste 0.2 -- -- 93
2019-04-18 08:00:00 11.2 3 Este 5 Sudeste 0 -- -- 92
2019-04-18 07:00:00 11.4 2 Este 12 Sudeste 0 -- -- 91
2019-04-18 06:00:00 11.3 11 Este 14 Este 0.2 -- -- 90
2019-04-18 05:00:00 11.9 7 Sudeste 10 Este 0.2 -- -- 88
2019-04-18 04:00:00 12.9 3 Sur 15 Sudoeste 0 -- -- 75
2019-04-18 03:00:00 13.5 11 Sudoeste 24 Sudoeste 0 -- -- 68
2019-04-18 02:00:00 14.4 14 Sudeste 29 Este 0 -- -- 70
2019-04-18 01:00:00 14 20 Este 31 Este 0 -- -- 68
2019-04-18 00:00:00 13.6 13 Este 21 Este 0 -- -- 69
2019-04-17 23:00:00 13.7 5 Sudoeste 24 Sudoeste 0 -- -- 67
2019-04-17 22:00:00 13.9 17 Sudoeste 37 Sudoeste 0 -- -- 66
2019-04-17 21:00:00 14.5 23 Sudoeste 49 Oeste 0 -- -- 72
2019-04-17 20:00:00 17.6 18 Sudoeste 35 Sur 0 -- -- 61
2019-04-17 19:00:00 18.5 20 Oeste 29 Sudoeste 0 -- -- 66
2019-04-17 18:00:00 19.2 18 Sudoeste 42 Sur 0 -- -- 55
2019-04-17 17:00:00 18.7 26 Sudoeste 46 Sudoeste 0 -- -- 58
2019-04-17 16:00:00 19.1 17 Sudoeste 37 Sudoeste 0 -- -- 58
2019-04-17 15:00:00 19.2 24 Sudoeste 37 Sudoeste 0 -- -- 59
2019-04-17 14:00:00 20.2 18 Sudoeste 43 Sudeste 0 -- -- 56
2019-04-17 13:00:00 21.1 24 Sur 46 Sudeste 0 -- -- 46
2019-04-17 12:00:00 21 27 Sudeste 49 Sudeste 0 -- -- 43
2019-04-17 11:00:00 18.5 20 Sudeste 30 Sudeste 0 -- -- 53
2019-04-17 10:00:00 17.4 14 Sur 26 Sur 0 -- -- 55
2019-04-17 09:00:00 17.8 19 Sudeste 30 Sudeste 0 -- -- 42
2019-04-17 08:00:00 15.3 11 Sudeste 26 Sudeste 0 -- -- 50
2019-04-17 07:00:00 16.4 20 Sudeste 38 Sudeste 0 -- -- 45
2019-04-17 06:00:00 16.6 24 Sudeste 39 Sudeste 0 -- -- 43
2019-04-17 05:00:00 15.7 23 Sudeste 37 Sur 0 -- -- 49
2019-04-17 04:00:00 15.8 24 Sudeste 42 Sur 0 -- -- 49
2019-04-17 03:00:00 15.1 22 Sudeste 35 Sudeste 0 -- -- 56
2019-04-17 02:00:00 15.7 20 Sudeste 37 Sudeste 0 -- -- 56
2019-04-17 01:00:00 16.3 23 Sur 37 Sudeste 0 -- -- 54
2019-04-17 00:00:00 16.3 13 Sur 32 Sur 0 -- -- 50
2019-04-16 23:00:00 17.3 17 Sur 32 Sur 0 -- -- 42
2019-04-16 22:00:00 18.7 16 Sur 25 Sur 0 -- -- 35
2019-04-16 21:00:00 20.6 13 Sur 26 Sur 0 -- -- 30
2019-04-16 20:00:00 23.8 18 Sur 27 Sur 0 -- -- 26
2019-04-16 19:00:00 25 17 Sur 28 Sudeste 0 -- -- 27
2019-04-16 18:00:00 25.5 18 Sudeste 34 Sudeste 0 -- -- 32
2019-04-16 17:00:00 25.8 13 Sur 32 Sur 0 -- -- 38
2019-04-16 16:00:00 24.7 9 Sudeste 23 Sur 0 -- -- 40
2019-04-16 15:00:00 23.4 5 Oeste 16 Nordeste 0 -- -- 47
2019-04-16 14:00:00 21.3 6 Norte 17 Nordeste 0 -- -- 56
2019-04-16 13:00:00 19.7 6 Noroeste 17 Noroeste 0 -- -- 63
2019-04-16 12:00:00 18.5 6 Oeste 13 Norte 0 -- -- 71
2019-04-16 11:00:00 16.4 6 Noroeste 10 Noroeste 0 -- -- 72
2019-04-16 10:00:00 15.4 3 Noroeste 5 Norte 0 -- -- 78
2019-04-16 09:00:00 12.6 0 Calma 8 Sudeste 0 -- -- 90
2019-04-16 08:00:00 8.6 4 Este 6 Este 0 -- -- 95
2019-04-16 07:00:00 8.6 3 Sudeste 8 Sudeste 0 -- -- 93
2019-04-16 06:00:00 9.5 0 Calma 8 Este 0 -- -- 92
2019-04-16 05:00:00 10.1 3 Este 5 Este 0 -- -- 90
2019-04-16 04:00:00 10.5 4 Este 7 Sudeste 0 -- -- 89
2019-04-16 03:00:00 11.8 4 Este 7 Sudeste 0 -- -- 86
2019-04-16 02:00:00 12.6 2 Sudeste 10 Sudoeste 0 -- -- 84
2019-04-16 01:00:00 13.6 6 Sudoeste 24 Oeste 0 -- -- 82
2019-04-16 00:00:00 14.8 12 Oeste 35 Sudoeste 0 -- -- 78
2019-04-15 23:00:00 15.4 15 Sudoeste 33 Sudoeste 0 -- -- 77
2019-04-15 22:00:00 16.5 18 Sudoeste 42 Sudoeste 0 -- -- 68
2019-04-15 21:00:00 18 22 Sudoeste 51 Sudoeste 0 -- -- 59
2019-04-15 20:00:00 21.2 24 Sudoeste 45 Sudoeste 0 -- -- 46
2019-04-15 19:00:00 23 26 Sudoeste 46 Sudoeste 0 -- -- 37
2019-04-15 18:00:00 24.4 26 Sudoeste 44 Sudoeste 0 -- -- 35
2019-04-15 17:00:00 25.2 22 Sudoeste 40 Sudoeste 0 -- -- 31
2019-04-15 16:00:00 24.8 23 Oeste 46 Oeste 0 -- -- 33
2019-04-15 15:00:00 24.9 18 Oeste 40 Oeste 0 -- -- 44
2019-04-15 14:00:00 24.2 12 Oeste 26 Oeste 0 -- -- 46
2019-04-15 13:00:00 22.1 19 Oeste 28 Sudoeste 0 -- -- 48
2019-04-15 12:00:00 21.2 16 Oeste 30 Sudoeste 0 -- -- 50
2019-04-15 11:00:00 20.9 13 Sudoeste 20 Oeste 0 -- -- 53
2019-04-15 10:00:00 19.6 13 Sudeste 26 Sudeste 0 -- -- 58
2019-04-15 09:00:00 16.3 15 Sudeste 26 Sudeste 0 -- -- 67
2019-04-15 08:00:00 14.7 13 Sudeste 20 Sudeste 0 -- -- 71
2019-04-15 07:00:00 13.5 13 Sudeste 18 Sudeste 0 -- -- 78
2019-04-15 06:00:00 14.5 11 Sudeste 15 Sudeste 0 -- -- 74
2019-04-15 05:00:00 14.6 8 Sudeste 14 Este 0 -- -- 74
2019-04-15 04:00:00 16.4 12 Sudeste 15 Este 0 -- -- 67
2019-04-15 03:00:00 16.2 12 Sudeste 14 Este 0 -- -- 70
2019-04-15 02:00:00 17.4 10 Sudeste 14 Sudeste 0 -- -- 67
2019-04-15 01:00:00 17.4 11 Sudeste 17 Sudeste 0 -- -- 67
2019-04-15 00:00:00 17.2 10 Sudeste 13 Sudeste 0 -- -- 69
2019-04-14 23:00:00 17.5 4 Sudeste 7 Sudeste 0 -- -- 71
2019-04-14 22:00:00 18.9 2 Sudeste 4 Sudoeste 0 -- -- 67
2019-04-14 21:00:00 21.1 4 Sudoeste 10 Sudoeste 0 -- -- 56
2019-04-14 20:00:00 23.7 7 Oeste 12 Sudoeste 0 -- -- 46
2019-04-14 19:00:00 24.5 6 Oeste 16 Oeste 0 -- -- 45
2019-04-14 18:00:00 24.9 9 Oeste 15 Oeste 0 -- -- 44
2019-04-14 17:00:00 25.1 7 Sudoeste 17 Norte 0 -- -- 44
2019-04-14 16:00:00 24.3 10 Noroeste 17 Noroeste 0 -- -- 43
2019-04-14 15:00:00 24.1 3 Sudoeste 12 Noroeste 0 -- -- 45
2019-04-14 14:00:00 22.5 6 Oeste 10 Noroeste 0 -- -- 42
2019-04-14 13:00:00 21.2 4 Oeste 13 Noroeste 0 -- -- 49
2019-04-14 12:00:00 19.8 4 Noroeste 11 Oeste 0 -- -- 48
2019-04-14 11:00:00 18.9 4 Norte 10 Noroeste 0 -- -- 52
2019-04-14 10:00:00 17.5 4 Este 13 Este 0 -- -- 53
2019-04-14 09:00:00 12.4 9 Sudeste 15 Este 0 -- -- 68
2019-04-14 08:00:00 10.1 0 Calma 13 Sudeste 0 -- -- 74
2019-04-14 07:00:00 10.4 10 Sudeste 13 Este 0 -- -- 73
2019-04-14 06:00:00 10.3 8 Sudeste 13 Sudeste 0 -- -- 75
2019-04-14 05:00:00 10.1 10 Sudeste 13 Sudeste 0 -- -- 76
2019-04-14 04:00:00 10.1 5 Sudeste 10 Sudeste 0 -- -- 77
2019-04-14 03:00:00 11.1 10 Sudeste 13 Sudeste 0 -- -- 72
2019-04-14 02:00:00 12.1 7 Sur 10 Sur 0 -- -- 67
2019-04-14 01:00:00 13.3 5 Oeste 13 Sudoeste 0 -- -- 65
2019-04-14 00:00:00 14.4 8 Oeste 20 Sudoeste 0 -- -- 61
2019-04-13 23:00:00 14.2 5 Sudoeste 12 Sudoeste 0 -- -- 58
2019-04-13 22:00:00 16 0 Calma 7 Sudoeste 0 -- -- 54
2019-04-13 21:00:00 18.8 6 Sudoeste 19 Sudoeste 0 -- -- 43
2019-04-13 20:00:00 21.7 10 Oeste 19 Oeste 0 -- -- 37
2019-04-13 19:00:00 22.7 10 Sudoeste 20 Oeste 0 -- -- 32
2019-04-13 18:00:00 22.9 7 Oeste 20 Oeste 0 -- -- 32
2019-04-13 17:00:00 22.5 8 Sudoeste 21 Oeste 0 -- -- 37
2019-04-13 16:00:00 21.9 9 Sudoeste 21 Sudoeste 0 -- -- 39
2019-04-13 15:00:00 21.4 10 Oeste 20 Noroeste 0 -- -- 39
2019-04-13 14:00:00 20.7 4 Norte 19 Norte 0 -- -- 43
2019-04-13 13:00:00 19.8 3 Sur 9 Norte 0 -- -- 42
2019-04-13 12:00:00 17.9 4 Noroeste 9 Oeste 0 -- -- 50
2019-04-13 11:00:00 16.9 4 Sur 10 Sur 0 -- -- 53
2019-04-13 10:00:00 15.6 4 Sudeste 13 Sudeste 0 -- -- 59
2019-04-13 09:00:00 11.9 10 Sudeste 15 Sudeste 0 -- -- 69
2019-04-13 08:00:00 9.1 11 Sudeste 16 Sudeste 0 -- -- 77
2019-04-13 07:00:00 8.4 11 Sudeste 14 Sudeste 0 -- -- 80
2019-04-13 06:00:00 8.5 12 Sudeste 15 Este 0 -- -- 81
2019-04-13 05:00:00 8.5 0 Calma 11 Sudeste 0 -- -- 79
2019-04-13 04:00:00 10 11 Sudeste 13 Sudeste 0 -- -- 73
2019-04-13 03:00:00 10.5 9 Sudeste 14 Sudeste 0 -- -- 72
2019-04-13 02:00:00 10.7 3 Sur 9 Sudoeste 0 -- -- 71
2019-04-13 01:00:00 11.3 0 Calma 16 Oeste 0 -- -- 69
2019-04-13 00:00:00 10.5 0 Calma 5 Sudoeste 0 -- -- 73
2019-04-12 23:00:00 11.6 0 Calma 4 Sudeste 0 -- -- 70
2019-04-12 22:00:00 14.1 0 Calma 5 Sur 0 -- -- 60
2019-04-12 21:00:00 17.7 4 Sudoeste 8 Sudoeste 0 -- -- 43
2019-04-12 20:00:00 21.1 5 Oeste 15 Oeste 0 -- -- 36
2019-04-12 19:00:00 20.6 5 Noroeste 24 Noroeste 0 -- -- 32
2019-04-12 18:00:00 20.8 11 Noroeste 23 Oeste 0 -- -- 34
2019-04-12 17:00:00 20.4 6 Noroeste 21 Noroeste 0 -- -- 39
2019-04-12 16:00:00 20.4 7 Oeste 23 Noroeste 0 -- -- 40
2019-04-12 15:00:00 20 10 Noroeste 28 Oeste 0 -- -- 39
2019-04-12 14:00:00 19.1 5 Noroeste 14 Noroeste 0 -- -- 48
2019-04-12 13:00:00 17.7 6 Noroeste 10 Noroeste 0 -- -- 54
2019-04-12 12:00:00 16.1 5 Noroeste 10 Noroeste 0 -- -- 63
2019-04-12 11:00:00 14.7 5 Noroeste 9 Sudoeste 0 -- -- 73
2019-04-12 10:00:00 12.6 5 Sudoeste 9 Sudoeste 0 -- -- 83
2019-04-12 09:00:00 11 7 Este 13 Sudeste 0 -- -- 88
2019-04-12 08:00:00 6.7 10 Sudeste 13 Sudeste 0 -- -- 96
2019-04-12 07:00:00 6.1 4 Este 8 Este 0 -- -- 96
2019-04-12 06:00:00 6.1 3 Sudeste 9 Este 0 -- -- 95
2019-04-12 05:00:00 6.4 3 Sudeste 11 Sudeste 0 -- -- 94
2019-04-12 04:00:00 7.4 7 Sudeste 11 Este 0 -- -- 93
2019-04-12 03:00:00 8.5 0 Calma 5 Sudeste 0 -- -- 89
2019-04-12 02:00:00 9.6 2 Sudoeste 12 Sudoeste 0 -- -- 87
2019-04-12 01:00:00 8.9 2 Sur 10 Sudoeste 0 -- -- 84
2019-04-12 00:00:00 9.5 4 Sudeste 9 Este 0 -- -- 80
2019-04-11 23:00:00 10.3 5 Sudeste 6 Sudeste 0 -- -- 80
2019-04-11 22:00:00 12 4 Este 9 Este 0 -- -- 74
2019-04-11 21:00:00 15.3 2 Oeste 11 Oeste 0 -- -- 57
2019-04-11 20:00:00 18.9 6 Noroeste 19 Noroeste 0 -- -- 46
2019-04-11 19:00:00 18.8 5 Norte 17 Oeste 0 -- -- 43
2019-04-11 18:00:00 19.1 9 Oeste 26 Oeste 0 -- -- 40
2019-04-11 17:00:00 18.3 9 Noroeste 20 Oeste 0 -- -- 45
2019-04-11 16:00:00 18.6 8 Noroeste 20 Norte 0 -- -- 47
2019-04-11 15:00:00 17.2 9 Norte 22 Norte 0 -- -- 56
2019-04-11 14:00:00 17 10 Norte 21 Norte 0 -- -- 60
2019-04-11 13:00:00 15.6 8 Norte 18 Norte 0 -- -- 64
2019-04-11 12:00:00 14.2 5 Noroeste 11 Norte 0 -- -- 70
2019-04-11 11:00:00 13.2 2 Este 11 Sudeste 0 -- -- 71
2019-04-11 10:00:00 11.5 3 Sudeste 9 Sudeste 0 -- -- 80
2019-04-11 09:00:00 8.5 6 Sudeste 10 Sudeste 0 -- -- 94
2019-04-11 08:00:00 4.7 2 Sur 4 Sudeste 0 -- -- 95
2019-04-11 07:00:00 4.9 0 Calma 5 Este 0 -- -- 92
2019-04-11 06:00:00 5.5 2 Sudeste 4 Este 0 -- -- 92
2019-04-11 05:00:00 5.9 2 Sur 3 Sur 0 -- -- 91
2019-04-11 04:00:00 6.5 0 Calma 6 Sudoeste 0 -- -- 89
2019-04-11 03:00:00 6.7 0 Calma 10 Este 0 -- -- 87
2019-04-11 02:00:00 7.9 0 Calma 4 Este 0 -- -- 83
2019-04-11 01:00:00 8.4 4 Sudoeste 6 Sudoeste 0 -- -- 82
2019-04-11 00:00:00 9.4 3 Sudoeste 5 Oeste 0 -- -- 78
2019-04-10 23:00:00 11 4 Oeste 13 Oeste 0 -- -- 70
2019-04-10 22:00:00 11.9 7 Oeste 9 Oeste 0 -- -- 68
2019-04-10 21:00:00 13.7 7 Oeste 24 Oeste 0 -- -- 60
2019-04-10 20:00:00 16.3 18 Oeste 28 Oeste 0 -- -- 48
2019-04-10 19:00:00 17.8 12 Sudoeste 29 Sudoeste 0 -- -- 53
2019-04-10 18:00:00 17.6 18 Sudoeste 29 Sudoeste 0 -- -- 55
2019-04-10 17:00:00 16.8 12 Sudoeste 28 Oeste 0 -- -- 59
2019-04-10 16:00:00 15.3 15 Oeste 26 Oeste 0 -- -- 63
2019-04-10 15:00:00 14.7 13 Sudoeste 23 Sudoeste 0 -- -- 66
2019-04-10 14:00:00 13.4 11 Oeste 22 Oeste 0 -- -- 70
2019-04-10 13:00:00 12.3 15 Oeste 22 Oeste 0 -- -- 74
2019-04-10 12:00:00 10.6 12 Oeste 20 Oeste 0 -- -- 80
2019-04-10 11:00:00 10.6 12 Oeste 21 Oeste 0 -- -- 85
2019-04-10 10:00:00 9.3 9 Oeste 15 Sudoeste 0 -- -- 94
2019-04-10 09:00:00 7.5 4 Sudoeste 9 Sudoeste 0 -- -- 98
2019-04-10 08:00:00 6 2 Sur 8 Sudoeste 0 -- -- 97
2019-04-10 07:00:00 6.2 0 Calma 6 Sudoeste 0 -- -- 96
2019-04-10 06:00:00 6.4 3 Sudeste 8 Sudoeste 0.2 -- -- 95
2019-04-10 05:00:00 7.8 5 Sudoeste 6 Sudoeste 0 -- -- 96
2019-04-10 04:00:00 8.6 2 Noroeste 8 Oeste 0 -- -- 96
2019-04-10 03:00:00 9.3 4 Oeste 10 Sudoeste 0 -- -- 96
2019-04-10 02:00:00 9.9 6 Oeste 11 Oeste 0 -- -- 95
2019-04-10 01:00:00 10.5 6 Oeste 14 Oeste 0 -- -- 95
2019-04-10 00:00:00 10.2 4 Sudoeste 8 Sudoeste 0 -- -- 94
2019-04-09 23:00:00 10.2 0 Calma 9 Sudoeste 0 -- -- 93
2019-04-09 22:00:00 10.7 4 Sur 38 Oeste 0.2 -- -- 90
2019-04-09 21:00:00 12.2 19 Oeste 33 Sudoeste 0 -- -- 82
2019-04-09 20:00:00 14.2 17 Oeste 34 Oeste 0 -- -- 71
2019-04-09 19:00:00 15.8 18 Sudoeste 41 Oeste 0 -- -- 61
2019-04-09 18:00:00 14.9 24 Oeste 42 Oeste 0.2 -- -- 64
2019-04-09 17:00:00 16.5 21 Sudoeste 33 Sudoeste 0.2 -- -- 60
2019-04-09 16:00:00 12.9 14 Oeste 37 Oeste 0 -- -- 79
2019-04-09 15:00:00 14.1 21 Sudoeste 39 Oeste 0 -- -- 67
2019-04-09 14:00:00 15.3 21 Oeste 34 Sudoeste 0 -- -- 67
2019-04-09 13:00:00 13.3 20 Oeste 37 Oeste 0 -- -- 73
2019-04-09 12:00:00 12.5 15 Oeste 25 Oeste 0 -- -- 84
2019-04-09 11:00:00 11.5 9 Sudoeste 17 Oeste 0 -- -- 86
2019-04-09 10:00:00 9.9 6 Sudoeste 13 Sur 0 -- -- 93
2019-04-09 09:00:00 8.6 6 Sur 12 Sur 0 -- -- 97
2019-04-09 08:00:00 7.4 4 Sudoeste 8 Sudoeste 0 -- -- 97
2019-04-09 07:00:00 6.9 0 Calma 13 Sudoeste 0 -- -- 95
2019-04-09 06:00:00 7.5 5 Sur 9 Sudoeste 0 -- -- 95
2019-04-09 05:00:00 8.2 6 Sudoeste 12 Sudoeste 0 -- -- 96
2019-04-09 04:00:00 9.2 7 Sudoeste 15 Sudoeste 0 -- -- 96
2019-04-09 03:00:00 10.4 8 Sudoeste 18 Oeste 0 -- -- 95
2019-04-09 02:00:00 11.1 10 Sudoeste 25 Sudoeste 0 -- -- 93
2019-04-09 01:00:00 11.5 12 Sudoeste 23 Sudoeste 0 -- -- 92
2019-04-09 00:00:00 11.9 14 Sudoeste 30 Sudoeste 0 -- -- 92
2019-04-08 23:00:00 12.3 14 Sudoeste 31 Sudoeste 0 -- -- 90
2019-04-08 22:00:00 12.6 14 Sudoeste 28 Sur 0 -- -- 90
2019-04-08 21:00:00 12.7 14 Sudoeste 30 Sudoeste 0.2 -- -- 92
2019-04-08 20:00:00 12.8 11 Oeste 30 Oeste 0.6 -- -- 95
2019-04-08 19:00:00 13.7 21 Sudoeste 41 Sudoeste 0 -- -- 86
2019-04-08 18:00:00 14.8 23 Sudoeste 37 Sudoeste 0 -- -- 83
2019-04-08 17:00:00 14.9 22 Sudoeste 42 Sur 0.2 -- -- 87
2019-04-08 16:00:00 13.4 16 Sudoeste 31 Sudoeste 4.2 -- -- 96
2019-04-08 15:00:00 13.4 9 Sudoeste 39 Sudoeste 2.4 -- -- 95
2019-04-08 14:00:00 14.8 14 Sudoeste 36 Sudoeste 0.8 -- -- 96
2019-04-08 13:00:00 14.5 22 Sudoeste 36 Sudoeste 0 -- -- 85
2019-04-08 12:00:00 13.1 20 Sudoeste 37 Sudoeste 1.2 -- -- 91
2019-04-08 11:00:00 13.9 12 Sudoeste 20 Sudoeste 0 -- -- 93
2019-04-08 10:00:00 13.1 12 Sudoeste 21 Sudoeste 0 -- -- 97
2019-04-08 09:00:00 12.5 13 Sudoeste 23 Sudoeste 0 -- -- 98
2019-04-08 08:00:00 12.1 10 Sudoeste 27 Sudoeste 0 -- -- 97
2019-04-08 07:00:00 12.2 13 Sudoeste 23 Sudoeste 0 -- -- 97
2019-04-08 06:00:00 12.4 11 Sudoeste 23 Sur 0 -- -- 97
2019-04-08 05:00:00 12.4 9 Sudoeste 19 Sudoeste 0 -- -- 98
2019-04-08 04:00:00 12.3 11 Sudoeste 24 Sudoeste 0.2 -- -- 97
2019-04-08 03:00:00 12.6 16 Sudoeste 26 Sudoeste 0.4 -- -- 98
2019-04-08 02:00:00 12.4 10 Sudoeste 28 Sudoeste 1.4 -- -- 97
2019-04-08 01:00:00 12.7 17 Sudoeste 33 Sudoeste 0 -- -- 97
2019-04-08 00:00:00 12.8 18 Sudoeste 32 Sudoeste 0 -- -- 98
2019-04-07 23:00:00 13.1 19 Sudoeste 36 Sudoeste 0.2 -- -- 98
2019-04-07 22:00:00 13.3 22 Sudoeste 44 Sudoeste 2.4 -- -- 97
2019-04-07 21:00:00 12.9 16 Sur 27 Sur 2.2 -- -- 97
2019-04-07 20:00:00 12.2 9 Sudeste 13 Sur 0.4 -- -- 95
2019-04-07 19:00:00 12.5 6 Sur 13 Sudoeste 0.2 -- -- 93
2019-04-07 18:00:00 12 6 Sudoeste 24 Sudoeste 0.2 -- -- 93
2019-04-07 17:00:00 12.3 17 Sudoeste 28 Oeste 0 -- -- 89
2019-04-07 16:00:00 12.7 18 Oeste 37 Oeste 0 -- -- 82
2019-04-07 15:00:00 14.9 19 Sudoeste 33 Sudoeste 0 -- -- 65
2019-04-07 14:00:00 13.9 19 Oeste 37 Oeste 0 -- -- 70
2019-04-07 13:00:00 13.6 17 Oeste 28 Oeste 0 -- -- 69
2019-04-07 12:00:00 12.7 16 Oeste 24 Oeste 0 -- -- 77
2019-04-07 11:00:00 11.2 11 Sudoeste 20 Sudoeste 0 -- -- 86
2019-04-07 10:00:00 9.5 7 Oeste 13 Sudoeste 0 -- -- 93
2019-04-07 09:00:00 8.5 5 Sudoeste 12 Sudoeste 0 -- -- 95
2019-04-07 08:00:00 8.3 7 Sudoeste 16 Sudoeste 0.2 -- -- 94
2019-04-07 07:00:00 8.4 8 Sudoeste 19 Sudoeste 0 -- -- 93
2019-04-07 06:00:00 8.5 10 Sudoeste 23 Sudoeste 0 -- -- 92
2019-04-07 05:00:00 8.4 10 Sudoeste 22 Sudoeste 0 -- -- 91
2019-04-07 04:00:00 8.4 10 Sudoeste 25 Sudoeste 0 -- -- 91
2019-04-07 03:00:00 8.5 15 Sudoeste 29 Sudoeste 0 -- -- 90
2019-04-07 02:00:00 8.7 16 Sudoeste 27 Sudoeste 0 -- -- 92
2019-04-07 01:00:00 8.7 15 Oeste 30 Sudoeste 0 -- -- 93
2019-04-07 00:00:00 8.9 9 Oeste 19 Oeste 0 -- -- 94
2019-04-06 23:00:00 8.9 7 Sur 10 Sudoeste 1.6 -- -- 95
2019-04-06 22:00:00 8.3 3 Noroeste 36 Oeste 0.2 -- -- 92
2019-04-06 21:00:00 9.8 13 Sudoeste 26 Oeste 0.4 -- -- 89
2019-04-06 20:00:00 10.6 17 Oeste 36 Sudoeste 0 -- -- 82
2019-04-06 19:00:00 9.1 27 Sudoeste 42 Sudoeste 0 -- -- 84
2019-04-06 18:00:00 9.9 18 Sudoeste 43 Sudoeste 0 -- -- 91
2019-04-06 17:00:00 8.7 19 Sudoeste 39 Oeste 1.2 -- -- 93
2019-04-06 16:00:00 8.2 5 Oeste 65 Oeste 1.8 -- -- 96
2019-04-06 15:00:00 11.8 19 Sudoeste 36 Sudoeste 0 -- -- 74
2019-04-06 14:00:00 10.8 24 Oeste 35 Oeste 0 -- -- 77
2019-04-06 13:00:00 11.6 17 Oeste 30 Oeste 0 -- -- 81
2019-04-06 12:00:00 9.4 9 Sudoeste 20 Sudoeste 1 -- -- 94
2019-04-06 11:00:00 8.8 9 Sudoeste 22 Sudoeste 0.2 -- -- 93
2019-04-06 10:00:00 8.1 11 Sudoeste 20 Sudoeste 0.8 -- -- 90
2019-04-06 09:00:00 7.4 7 Sur 16 Sur 0 -- -- 91
2019-04-06 08:00:00 6.6 6 Sur 13 Sur 0 -- -- 93
2019-04-06 07:00:00 6.2 7 Sudoeste 14 Sudoeste 0 -- -- 93
2019-04-06 06:00:00 6.6 9 Sudoeste 21 Sudoeste 0 -- -- 91
2019-04-06 05:00:00 6.1 5 Oeste 21 Sudoeste 0 -- -- 91
2019-04-06 04:00:00 6.6 13 Sudoeste 25 Sudoeste 0 -- -- 89
2019-04-06 03:00:00 6.9 14 Sudoeste 26 Sudoeste 0 -- -- 87
2019-04-06 02:00:00 7.1 14 Sudoeste 30 Sudoeste 0 -- -- 88
2019-04-06 01:00:00 7.2 16 Sudoeste 31 Sudoeste 0 -- -- 88
2019-04-06 00:00:00 7.6 14 Sudoeste 26 Sudoeste 0 -- -- 87
2019-04-05 23:00:00 7.7 12 Sudoeste 22 Sudoeste 0 -- -- 86
2019-04-05 22:00:00 8.4 16 Sudoeste 38 Sudoeste 0 -- -- 79
2019-04-05 21:00:00 9.5 17 Sudoeste 47 Sudoeste 0 -- -- 73
2019-04-05 20:00:00 11 28 Sudoeste 51 Sudoeste 0 -- -- 65
2019-04-05 19:00:00 12.9 26 Sudoeste 45 Oeste 0 -- -- 51
2019-04-05 18:00:00 13.1 26 Oeste 42 Oeste 0 -- -- 54
2019-04-05 17:00:00 12.4 29 Oeste 46 Oeste 0 -- -- 62
2019-04-05 16:00:00 13 26 Oeste 45 Oeste 0 -- -- 60
2019-04-05 15:00:00 12.1 23 Oeste 35 Oeste 0.2 -- -- 71
2019-04-05 14:00:00 9.9 14 Sudoeste 28 Sur 0.2 -- -- 90
2019-04-05 13:00:00 9.5 16 Sudoeste 27 Sudoeste 0.6 -- -- 90
2019-04-05 12:00:00 10 13 Sudoeste 26 Sur 0.2 -- -- 90
2019-04-05 11:00:00 8.9 13 Sudeste 21 Sudeste 2.4 -- -- 94
2019-04-05 10:00:00 8.5 12 Sudeste 20 Sudeste 2 -- -- 94
2019-04-05 09:00:00 8.5 11 Oeste 22 Oeste 3.6 -- -- 91
2019-04-05 08:00:00 9 9 Sudeste 17 Sudeste 0.4 -- -- 88
2019-04-05 07:00:00 9.4 8 Sur 23 Sudoeste 0 -- -- 84
2019-04-05 06:00:00 9.7 6 Sur 14 Sur 0 -- -- 71
2019-04-05 05:00:00 9.7 6 Sur 21 Sur 0 -- -- 67
2019-04-05 04:00:00 10 14 Sur 34 Sudoeste 0 -- -- 66
2019-04-05 03:00:00 10 21 Sudoeste 37 Sudoeste 0 -- -- 65
2019-04-05 02:00:00 10.1 19 Sudoeste 33 Sudoeste 0 -- -- 69
2019-04-05 01:00:00 9.9 16 Sudoeste 34 Sudoeste 0 -- -- 63
2019-04-05 00:00:00 9.8 13 Sur 33 Sudoeste 0 -- -- 56
2019-04-04 23:00:00 10.2 13 Sudoeste 25 Sudoeste 0 -- -- 48
2019-04-04 22:00:00 11.5 14 Sudoeste 25 Sudoeste 0 -- -- 42
2019-04-04 21:00:00 12.8 15 Sudoeste 39 Sudoeste 0 -- -- 43
2019-04-04 20:00:00 15.7 25 Oeste 38 Sudoeste 0 -- -- 41
2019-04-04 19:00:00 17.2 21 Oeste 37 Oeste 0 -- -- 32
2019-04-04 18:00:00 17.4 23 Oeste 35 Oeste 0 -- -- 32
2019-04-04 17:00:00 17.8 18 Sudoeste 34 Oeste 0 -- -- 29
2019-04-04 16:00:00 17.1 21 Sudoeste 35 Sudoeste 0 -- -- 35
2019-04-04 15:00:00 16.2 12 Oeste 27 Sudoeste 0 -- -- 42
2019-04-04 14:00:00 14.7 14 Sudoeste 26 Oeste 0 -- -- 43
2019-04-04 13:00:00 13.4 12 Sudoeste 22 Sudoeste 0 -- -- 49
2019-04-04 12:00:00 12.1 12 Sudoeste 20 Sur 0 -- -- 51
2019-04-04 11:00:00 10.5 7 Sudoeste 12 Oeste 0 -- -- 53
2019-04-04 10:00:00 8.5 4 Oeste 12 Sudoeste 0 -- -- 65
2019-04-04 09:00:00 6.2 3 Sudoeste 6 Oeste 0 -- -- 78
2019-04-04 08:00:00 3.8 2 Sur 6 Sur 0 -- -- 89
2019-04-04 07:00:00 2.9 3 Sur 5 Sur 0 -- -- 87
2019-04-04 06:00:00 4.5 0 Calma 4 Este 0 -- -- 81
2019-04-04 05:00:00 5.3 3 Este 4 Sudeste 0 -- -- 79
2019-04-04 04:00:00 6.4 3 Este 6 Este 0 -- -- 76
2019-04-04 03:00:00 7.4 2 Este 5 Este 0 -- -- 72
2019-04-04 02:00:00 7.7 2 Este 5 Este 0 -- -- 81
2019-04-04 01:00:00 8.5 0 Calma 3 Sur 0 -- -- 79
2019-04-04 00:00:00 10.1 3 Sur 5 Oeste 0 -- -- 72
2019-04-03 23:00:00 12.6 6 Oeste 22 Noroeste 0 -- -- 58
2019-04-03 22:00:00 14.3 11 Sudoeste 20 Sudoeste 0 -- -- 52
2019-04-03 21:00:00 15.8 12 Sudoeste 30 Sudoeste 0 -- -- 49
2019-04-03 20:00:00 18.6 22 Sudoeste 36 Oeste 0 -- -- 39
2019-04-03 19:00:00 20 22 Sudoeste 43 Oeste 0 -- -- 39
2019-04-03 18:00:00 20.6 22 Sudoeste 39 Sudoeste 0 -- -- 44
2019-04-03 17:00:00 20.8 22 Oeste 42 Sudoeste 0 -- -- 45
2019-04-03 16:00:00 20.8 20 Sudoeste 39 Oeste 0 -- -- 43
2019-04-03 15:00:00 20.1 19 Oeste 31 Oeste 0 -- -- 47
2019-04-03 14:00:00 19.7 11 Oeste 22 Noroeste 0 -- -- 56
2019-04-03 13:00:00 18.6 10 Oeste 16 Oeste 0 -- -- 62
2019-04-03 12:00:00 17.1 6 Oeste 12 Sudoeste 0 -- -- 67
2019-04-03 11:00:00 16.3 2 Oeste 7 Sudeste 0 -- -- 68
2019-04-03 10:00:00 14 6 Sudeste 14 Sudeste 0 -- -- 76
2019-04-03 09:00:00 11.3 6 Sudeste 13 Sudeste 0 -- -- 88
2019-04-03 08:00:00 9.7 10 Sudeste 13 Sudeste 0 -- -- 89
2019-04-03 07:00:00 10 13 Sudeste 15 Sudeste 0 -- -- 89
2019-04-03 06:00:00 10 13 Sudeste 18 Sudeste 0 -- -- 89
2019-04-03 05:00:00 10.5 11 Sudeste 13 Sudeste 0 -- -- 89
2019-04-03 04:00:00 10.3 7 Sudeste 11 Sudeste 0 -- -- 89
2019-04-03 03:00:00 10.4 2 Sur 6 Sudeste 0 -- -- 90
2019-04-03 02:00:00 10.2 5 Sudeste 8 Sudeste 0 -- -- 89
2019-04-03 01:00:00 10.6 2 Sudeste 9 Este 0 -- -- 88
2019-04-03 00:00:00 11.5 0 Calma 8 Este 0 -- -- 86
2019-04-02 23:00:00 12.2 2 Este 7 Sudeste 0 -- -- 86
2019-04-02 22:00:00 13.5 3 Sudeste 6 Este 0 -- -- 79
2019-04-02 21:00:00 15.6 3 Sudoeste 9 Oeste 0 -- -- 67
2019-04-02 20:00:00 18 7 Oeste 16 Oeste 0 -- -- 59
2019-04-02 19:00:00 20.9 6 Sudoeste 16 Oeste 0 -- -- 49
2019-04-02 18:00:00 19.8 6 Sudoeste 16 Oeste 0 -- -- 53
2019-04-02 17:00:00 19.5 6 Oeste 17 Oeste 0 -- -- 59
2019-04-02 16:00:00 19.6 7 Noroeste 14 Norte 0 -- -- 58
2019-04-02 15:00:00 18.8 6 Noroeste 15 Noroeste 0 -- -- 65
2019-04-02 14:00:00 17.4 4 Oeste 10 Oeste 0 -- -- 66
2019-04-02 13:00:00 16.5 5 Noroeste 12 Oeste 0 -- -- 71
2019-04-02 12:00:00 15.5 9 Oeste 14 Noroeste 0 -- -- 81
2019-04-02 11:00:00 13.9 3 Noroeste 7 Norte 0 -- -- 83
2019-04-02 10:00:00 12.9 0 Calma 6 Este 0 -- -- 94
2019-04-02 09:00:00 9.5 4 Este 10 Este 0 -- -- 99
2019-04-02 08:00:00 8.4 7 Sudeste 10 Sudeste 0 -- -- 97
2019-04-02 07:00:00 8.8 2 Este 5 Este 0 -- -- 97
2019-04-02 06:00:00 8.1 4 Este 6 Este 0 -- -- 95
2019-04-02 05:00:00 9.7 8 Sudeste 12 Sudeste 0 -- -- 95
2019-04-02 04:00:00 10.5 9 Sudeste 10 Sudeste 0 -- -- 95
2019-04-02 03:00:00 11.6 3 Sur 9 Sudeste 0 -- -- 95
2019-04-02 02:00:00 11.8 7 Sudeste 11 Sur 0 -- -- 95
2019-04-02 01:00:00 12 7 Sur 14 Sur 0 -- -- 95
2019-04-02 00:00:00 11.6 9 Sudeste 17 Sudeste 0 -- -- 94
2019-04-01 23:00:00 11.8 10 Sudeste 19 Sudeste 0 -- -- 93
2019-04-01 22:00:00 11.7 8 Sudeste 16 Sudeste 0 -- -- 92
2019-04-01 21:00:00 12.3 5 Sudeste 13 Sudoeste 0 -- -- 91
2019-04-01 20:00:00 13.1 4 Sur 7 Sudeste 0 -- -- 91
2019-04-01 19:00:00 12.2 2 Nordeste 27 Oeste 3.6 -- -- 91
2019-04-01 18:00:00 14.5 8 Sudeste 15 Sudeste 1 -- -- 88
2019-04-01 17:00:00 14.3 10 Sudeste 15 Sudeste 0 -- -- 88
2019-04-01 16:00:00 13.8 6 Sur 27 Oeste 0.8 -- -- 88
2019-04-01 15:00:00 17.4 11 Oeste 27 Oeste 0 -- -- 67
2019-04-01 14:00:00 17.2 16 Oeste 27 Oeste 0 -- -- 66
2019-04-01 13:00:00 16.7 11 Sur 22 Sudeste 0 -- -- 66
2019-04-01 12:00:00 16.3 9 Sur 19 Sur 0 -- -- 72
2019-04-01 11:00:00 14.7 11 Sudeste 20 Sudeste 0 -- -- 78
2019-04-01 10:00:00 14.1 9 Sudeste 17 Sudeste 0 -- -- 83
2019-04-01 09:00:00 11 4 Sudeste 12 Sudeste 0 -- -- 95
2019-04-01 08:00:00 9.6 9 Sudeste 13 Sudeste 0 -- -- 94
2019-04-01 07:00:00 10.8 11 Sudeste 15 Sudeste 0.2 -- -- 93
2019-04-01 06:00:00 10.9 12 Sudeste 17 Sudeste 0 -- -- 93
2019-04-01 05:00:00 11.6 11 Sudeste 15 Sudeste 0 -- -- 93
2019-04-01 04:00:00 11.5 7 Sudeste 13 Sudeste 0.4 -- -- 93
2019-04-01 03:00:00 11.7 9 Sudeste 18 Sudeste 0.2 -- -- 93
2019-04-01 02:00:00 11.8 9 Sudeste 17 Sudeste 0 -- -- 93
2019-04-01 01:00:00 11.9 5 Sudeste 12 Sur 0.2 -- -- 92
2019-04-01 00:00:00 11.9 6 Sur 15 Sur 0.4 -- -- 92
2019-03-31 23:00:00 12.3 10 Sur 22 Sudoeste 0 -- -- 89
2019-03-31 22:00:00 13.2 17 Sudoeste 30 Sudoeste 0 -- -- 84
2019-03-31 21:00:00 15 7 Nordeste 14 Noroeste 0 -- -- 74
2019-03-31 20:00:00 17.2 9 Norte 19 Norte 0 -- -- 61
2019-03-31 19:00:00 18.9 6 Norte 18 Oeste 0 -- -- 55
2019-03-31 18:00:00 18.5 5 Norte 18 Nordeste 0 -- -- 55
2019-03-31 17:00:00 19.6 7 Noroeste 17 Norte 0 -- -- 58
2019-03-31 16:00:00 18.8 8 Noroeste 17 Norte 0 -- -- 63
2019-03-31 15:00:00 17.7 5 Nordeste 19 Noroeste 0 -- -- 73
2019-03-31 14:00:00 16.6 6 Norte 13 Noroeste 0 -- -- 79
2019-03-31 13:00:00 15 5 Noroeste 8 Oeste 0.2 -- -- 87
2019-03-31 12:00:00 13.9 3 Noroeste 4 Noroeste 0 -- -- 90
2019-03-31 11:00:00 13.2 0 Calma 8 Este 0.2 -- -- 92
2019-03-31 10:00:00 12.2 6 Sudeste 8 Este 0.8 -- -- 94
2019-03-31 09:00:00 11.6 3 Este 5 Noroeste 1.2 -- -- 95
2019-03-31 08:00:00 11.4 0 Calma 8 Este 1.4 -- -- 94
2019-03-31 07:00:00 11.6 5 Este 10 Este 1.2 -- -- 93
2019-03-31 06:00:00 11.9 4 Este 9 Nordeste 0.2 -- -- 90
2019-03-31 05:00:00 12.5 2 Este 10 Este 0.2 -- -- 84
2019-03-31 03:00:00 12.9 11 Sur 22 Sur 0 -- -- 79
2019-03-31 01:00:00 13.4 11 Sudeste 24 Sudeste 0 -- -- 73
2019-03-31 00:00:00 13.1 13 Sudeste 22 Sur 0 -- -- 72
2019-03-30 23:00:00 12.8 14 Sudeste 24 Sur 0 -- -- 71
2019-03-30 22:00:00 13.4 16 Sur 27 Sudeste 0 -- -- 69
2019-03-30 21:00:00 13.6 14 Sur 21 Sur 0 -- -- 67
2019-03-30 20:00:00 14 14 Sudeste 34 Sur 0 -- -- 66
2019-03-30 19:00:00 14.9 23 Sur 39 Sur 0 -- -- 63
2019-03-30 18:00:00 16.7 20 Sur 35 Sur 0 -- -- 57
2019-03-30 17:00:00 19.1 21 Sur 31 Sur 0 -- -- 48
2019-03-30 16:00:00 21 14 Sudeste 27 Sur 0 -- -- 44
2019-03-30 15:00:00 20.9 13 Sur 26 Sudeste 0 -- -- 45
2019-03-30 14:00:00 21.2 13 Sur 26 Sur 0 -- -- 44
2019-03-30 13:00:00 20.2 7 Sur 21 Sudeste 0 -- -- 44
2019-03-30 12:00:00 18.5 8 Este 18 Sudeste 0 -- -- 47
2019-03-30 11:00:00 17.4 7 Sudeste 21 Sudeste 0 -- -- 51
2019-03-30 10:00:00 15.6 12 Este 20 Este 0 -- -- 56
2019-03-30 09:00:00 12.1 9 Este 20 Nordeste 0 -- -- 67
2019-03-30 08:00:00 10.6 9 Este 16 Este 0 -- -- 70
2019-03-30 07:00:00 8.3 9 Este 13 Este 0 -- -- 80
2019-03-30 06:00:00 8.1 8 Este 12 Este 0 -- -- 80
2019-03-30 05:00:00 9.5 5 Este 21 Este 0 -- -- 76
2019-03-30 04:00:00 10.5 12 Este 19 Este 0 -- -- 73
2019-03-30 03:00:00 11.4 13 Este 27 Sudeste 0 -- -- 71
2019-03-30 02:00:00 11.9 12 Sudeste 30 Sudeste 0 -- -- 70
2019-03-30 01:00:00 12.2 15 Sudeste 27 Sudeste 0 -- -- 71
2019-03-30 00:00:00 12.2 15 Sudeste 27 Sudeste 0 -- -- 69
2019-03-29 23:00:00 11.8 15 Sudeste 29 Sur 0 -- -- 70
2019-03-29 22:00:00 11.9 5 Sudeste 19 Sur 0 -- -- 70
2019-03-29 21:00:00 13.2 11 Sudeste 18 Sur 0 -- -- 65
2019-03-29 20:00:00 14 12 Sur 27 Sur 0 -- -- 60
2019-03-29 19:00:00 15.6 17 Sur 31 Sur 0 -- -- 54
2019-03-29 18:00:00 16.9 18 Sur 32 Sudoeste 0 -- -- 50
2019-03-29 17:00:00 18.9 19 Sur 31 Sur 0 -- -- 44
2019-03-29 16:00:00 19 17 Sur 33 Sudoeste 0 -- -- 43
2019-03-29 15:00:00 20.1 14 Sur 28 Sudeste 0 -- -- 38
2019-03-29 14:00:00 19.8 14 Sudeste 26 Nordeste 0 -- -- 37
2019-03-29 13:00:00 18.7 7 Sudeste 31 Este 0 -- -- 37
2019-03-29 12:00:00 17.7 11 Sudeste 31 Este 0 -- -- 38
2019-03-29 11:00:00 15.8 17 Sudeste 29 Este 0 -- -- 34
2019-03-29 10:00:00 12.9 13 Sudeste 22 Sudeste 0 -- -- 39
2019-03-29 09:00:00 10.3 10 Este 19 Este 0 -- -- 43
2019-03-29 08:00:00 5.8 7 Este 13 Sudeste 0 -- -- 63
2019-03-29 07:00:00 3.7 0 Calma 12 Este 0 -- -- 74
2019-03-29 06:00:00 4.3 4 Este 9 Este 0 -- -- 75
2019-03-29 05:00:00 5.9 6 Este 12 Este 0 -- -- 60
2019-03-29 04:00:00 5.8 4 Este 10 Este 0 -- -- 73
2019-03-29 03:00:00 7.7 8 Este 15 Sudeste 0 -- -- 69
2019-03-29 02:00:00 8.4 12 Sudeste 17 Sudeste 0 -- -- 69
2019-03-29 01:00:00 10 8 Sudeste 22 Sudeste 0 -- -- 67
2019-03-29 00:00:00 10.8 17 Sudeste 29 Sudeste 0 -- -- 68
2019-03-28 23:00:00 11.2 21 Sudeste 31 Sudeste 0 -- -- 62
2019-03-28 22:00:00 11.9 18 Sudeste 31 Sudeste 0 -- -- 57
2019-03-28 21:00:00 12.1 14 Sudeste 24 Sudeste 0 -- -- 52
2019-03-28 20:00:00 13.7 13 Sur 32 Sur 0 -- -- 46
2019-03-28 19:00:00 16.4 15 Sur 37 Sur 0 -- -- 36
2019-03-28 18:00:00 19 18 Sur 27 Sur 0 -- -- 27
2019-03-28 17:00:00 20 16 Sur 29 Sudoeste 0 -- -- 26
2019-03-28 16:00:00 20.7 15 Sur 28 Sudeste 0 -- -- 25
2019-03-28 15:00:00 20.4 9 Sudeste 26 Sudeste 0 -- -- 28
2019-03-28 14:00:00 19.3 15 Sudeste 35 Sudeste 0 -- -- 35
2019-03-28 13:00:00 18.6 15 Este 29 Este 0 -- -- 32
2019-03-28 12:00:00 17.1 19 Sudeste 33 Este 0 -- -- 32
2019-03-28 11:00:00 15.2 18 Sudeste 32 Sudeste 0 -- -- 42
2019-03-28 10:00:00 13.8 18 Sudeste 32 Sudeste 0 -- -- 49
2019-03-28 09:00:00 11.5 15 Sudeste 28 Sudeste 0 -- -- 58
2019-03-28 08:00:00 9 12 Sudeste 21 Sudeste 0 -- -- 73
2019-03-28 07:00:00 6.9 10 Sudeste 13 Sudeste 0 -- -- 84
2019-03-28 06:00:00 6.7 8 Este 13 Este 0 -- -- 84
2019-03-28 05:00:00 6.6 0 Calma 8 Nordeste 0 -- -- 86
2019-03-28 04:00:00 7.2 3 Nordeste 10 Este 0 -- -- 85
2019-03-28 03:00:00 7.2 7 Este 9 Sudeste 0 -- -- 82
2019-03-28 02:00:00 8.4 5 Este 10 Sur 0 -- -- 79
2019-03-28 01:00:00 10.3 3 Sudeste 20 Sudeste 0 -- -- 73
2019-03-28 00:00:00 11.2 11 Sudeste 21 Sudeste 0 -- -- 71
2019-03-27 23:00:00 11.2 11 Sudeste 23 Sudeste 0 -- -- 69
2019-03-27 22:00:00 11.2 10 Sudeste 25 Sur 0 -- -- 69
2019-03-27 21:00:00 12.3 16 Sudeste 32 Sur 0 -- -- 64
2019-03-27 20:00:00 13.7 17 Sur 28 Sudeste 0 -- -- 56
2019-03-27 19:00:00 16.3 19 Sur 31 Sur 0 -- -- 44
2019-03-27 18:00:00 18.9 16 Sur 28 Sur 0 -- -- 37
2019-03-27 17:00:00 21.1 9 Oeste 19 Oeste 0 -- -- 28
2019-03-27 16:00:00 20.8 9 Oeste 25 Sudoeste 0 -- -- 27
2019-03-27 15:00:00 20.7 4 Oeste 17 Nordeste 0 -- -- 26
2019-03-27 14:00:00 19.4 6 Este 21 Nordeste 0 -- -- 28
2019-03-27 13:00:00 18.8 3 Sudeste 26 Sudeste 0 -- -- 26
2019-03-27 12:00:00 17 11 Nordeste 24 Nordeste 0 -- -- 33
2019-03-27 11:00:00 15.8 8 Norte 18 Norte 0 -- -- 49
2019-03-27 10:00:00 13.8 5 Noroeste 11 Norte 0 -- -- 62
2019-03-27 09:00:00 12.4 4 Nordeste 6 Nordeste 0 -- -- 72
2019-03-27 08:00:00 7.6 2 Nordeste 10 Sudeste 0 -- -- 86
2019-03-27 07:00:00 6.7 3 Sudeste 15 Este 0 -- -- 78
2019-03-27 06:00:00 7.3 9 Este 14 Sudeste 0 -- -- 91
2019-03-27 05:00:00 8.7 7 Sur 11 Sur 0 -- -- 87
2019-03-27 04:00:00 9.4 3 Sudeste 12 Sudeste 0 -- -- 84
2019-03-27 03:00:00 10.5 10 Sudeste 19 Sudeste 0 -- -- 82
2019-03-27 02:00:00 11.8 10 Sudeste 18 Sudeste 0 -- -- 79
2019-03-27 01:00:00 11.8 11 Sudeste 27 Sur 0 -- -- 82
2019-03-27 00:00:00 12.5 12 Sudeste 18 Sur 0 -- -- 80
2019-03-26 23:00:00 13.3 6 Sudeste 20 Sudeste 0 -- -- 72
2019-03-26 22:00:00 14.2 11 Sur 28 Sur 0 -- -- 69
2019-03-26 21:00:00 14.8 11 Sudeste 27 Sudeste 0 -- -- 65
2019-03-26 20:00:00 15.8 18 Sudeste 29 Sur 0 -- -- 58
2019-03-26 19:00:00 17.6 19 Sur 33 Sur 0 -- -- 53
2019-03-26 18:00:00 18.8 22 Sur 34 Sur 0 -- -- 47
2019-03-26 17:00:00 21 19 Sur 31 Sur 0 -- -- 39
2019-03-26 16:00:00 24.1 8 Sudeste 22 Este 0 -- -- 30
2019-03-26 15:00:00 23.9 9 Sudeste 22 Este 0 -- -- 30
2019-03-26 14:00:00 23 9 Sudoeste 23 Sur 0 -- -- 30
2019-03-26 13:00:00 22.7 9 Sur 18 Sudoeste 0 -- -- 30
2019-03-26 12:00:00 21.5 3 Oeste 9 Noroeste 0 -- -- 34
2019-03-26 11:00:00 19.6 5 Nordeste 10 Noroeste 0 -- -- 39
2019-03-26 10:00:00 17.5 3 Este 13 Este 0 -- -- 48
2019-03-26 09:00:00 13.9 4 Sudeste 10 Sudeste 0 -- -- 63
2019-03-26 08:00:00 9 2 Sudeste 9 Este 0 -- -- 82
2019-03-26 07:00:00 8.2 3 Sudeste 10 Sudeste 0 -- -- 82
2019-03-26 06:00:00 9.2 3 Este 6 Este 0 -- -- 80
2019-03-26 05:00:00 8.7 4 Este 9 Sudeste 0 -- -- 81
2019-03-26 04:00:00 9.4 4 Sudeste 8 Sudeste 0 -- -- 79
2019-03-26 03:00:00 9.8 3 Este 8 Sudeste 0 -- -- 75
2019-03-26 02:00:00 10.8 9 Sudeste 10 Sudeste 0 -- -- 72
2019-03-26 01:00:00 11.9 0 Calma 17 Sudeste 0 -- -- 65
2019-03-26 00:00:00 12.4 13 Sudeste 17 Sudeste 0 -- -- 68
2019-03-25 23:00:00 12.8 9 Sudeste 15 Este 0 -- -- 66
2019-03-25 22:00:00 14.7 11 Sudeste 19 Sudeste 0 -- -- 60
2019-03-25 21:00:00 16 14 Sudeste 22 Sur 0 -- -- 54
2019-03-25 20:00:00 17.3 13 Sur 23 Sur 0 -- -- 50
2019-03-25 19:00:00 19.8 15 Sur 25 Sur 0 -- -- 46
2019-03-25 18:00:00 22.5 13 Sur 20 Sur 0 -- -- 40
2019-03-25 17:00:00 23.5 3 Noroeste 20 Norte 0 -- -- 33
2019-03-25 16:00:00 22.7 10 Norte 20 Norte 0 -- -- 34
2019-03-25 15:00:00 22.5 11 Este 22 Este 0 -- -- 35
2019-03-25 14:00:00 22 6 Norte 16 Este 0 -- -- 38
2019-03-25 13:00:00 21.3 5 Noroeste 15 Norte 0 -- -- 39
2019-03-25 12:00:00 19.6 8 Norte 14 Noroeste 0 -- -- 46
2019-03-25 11:00:00 17.8 9 Oeste 15 Oeste 0 -- -- 52
2019-03-25 10:00:00 15.8 2 Norte 5 Noroeste 0 -- -- 53
2019-03-25 09:00:00 10.9 0 Calma 8 Norte 0 -- -- 74
2019-03-25 08:00:00 8.1 3 Este 8 Este 0 -- -- 78
2019-03-25 07:00:00 7.7 5 Sudeste 8 Sudeste 0 -- -- 79
2019-03-25 06:00:00 7.8 4 Este 6 Este 0 -- -- 75
2019-03-25 05:00:00 8.4 4 Nordeste 7 Este 0 -- -- 74
2019-03-25 04:00:00 9 3 Nordeste 10 Este 0 -- -- 72
2019-03-25 03:00:00 9.1 7 Sur 9 Sudeste 0 -- -- 76
2019-03-25 02:00:00 10.6 0 Calma 9 Nordeste 0 -- -- 75
2019-03-25 01:00:00 11.1 5 Nordeste 10 Sudeste 0 -- -- 75
2019-03-25 00:00:00 11.1 7 Sudeste 10 Este 0 -- -- 74
2019-03-24 23:00:00 11.5 4 Este 9 Sudeste 0 -- -- 71
2019-03-24 22:00:00 13 4 Sudeste 10 Sudeste 0 -- -- 67
2019-03-24 21:00:00 14 8 Sudeste 12 Este 0 -- -- 60
2019-03-24 20:00:00 15.7 8 Este 23 Este 0 -- -- 55
2019-03-24 19:00:00 17.4 12 Este 28 Este 0 -- -- 49
2019-03-24 18:00:00 18.2 22 Este 31 Este 0 -- -- 51
2019-03-24 17:00:00 19.7 17 Sur 39 Sudeste 0 -- -- 47
2019-03-24 16:00:00 18.2 10 Sudeste 26 Sudeste 0 -- -- 48
2019-03-24 15:00:00 18.8 15 Sudeste 41 Sudeste 0 -- -- 45
2019-03-24 14:00:00 20.3 23 Este 41 Este 0 -- -- 42
2019-03-24 13:00:00 18.7 26 Este 42 Sudeste 0 -- -- 45
2019-03-24 12:00:00 19 21 Este 46 Este 0 -- -- 44
2019-03-24 11:00:00 17.5 6 Este 12 Sudeste 0 -- -- 50
2019-03-24 10:00:00 15.2 5 Sur 10 Sudoeste 0 -- -- 55
2019-03-24 09:00:00 12 3 Noroeste 6 Este 0 -- -- 72
2019-03-24 08:00:00 7 4 Sudeste 8 Este 0 -- -- 86
2019-03-24 07:00:00 6.8 4 Este 9 Este 0 -- -- 84
2019-03-24 06:00:00 6.7 6 Este 10 Sudeste 0 -- -- 83
2019-03-24 05:00:00 7.4 6 Sudeste 13 Sudeste 0 -- -- 81
2019-03-24 04:00:00 8.1 3 Este 14 Sudeste 0 -- -- 79
2019-03-24 03:00:00 8.4 9 Sudeste 14 Sudeste 0 -- -- 79
2019-03-24 02:00:00 8.5 10 Sudeste 12 Sudeste 0 -- -- 79
2019-03-24 01:00:00 8.1 9 Este 12 Sudeste 0 -- -- 79
2019-03-24 00:00:00 9.5 9 Sudeste 18 Este 0 -- -- 73
2019-03-23 23:00:00 10.7 11 Sudeste 14 Sudeste 0 -- -- 68
2019-03-23 22:00:00 11.1 10 Sudeste 16 Sudeste 0 -- -- 70
2019-03-23 21:00:00 12.3 5 Este 15 Sudeste 0 -- -- 70
2019-03-23 20:00:00 14 9 Sudeste 22 Sur 0 -- -- 64
2019-03-23 19:00:00 16.3 13 Sur 30 Sur 0 -- -- 58
2019-03-23 18:00:00 17.8 16 Sur 23 Sudeste 0 -- -- 47
2019-03-23 17:00:00 19.1 8 Sur 25 Sudeste 0 -- -- 43
2019-03-23 16:00:00 20.3 13 Sur 21 Sur 0 -- -- 41
2019-03-23 15:00:00 20.1 12 Sudeste 26 Sudeste 0 -- -- 40
2019-03-23 14:00:00 20.6 13 Sudeste 33 Este 0 -- -- 37
2019-03-23 13:00:00 19.4 19 Sudeste 33 Sur 0 -- -- 39
2019-03-23 12:00:00 19 11 Este 26 Sudeste 0 -- -- 41
2019-03-23 11:00:00 17.9 11 Este 41 Este 0 -- -- 44
2019-03-23 10:00:00 16.2 17 Este 26 Nordeste 0 -- -- 48
2019-03-23 09:00:00 11.7 4 Noroeste 10 Sur 0 -- -- 72
2019-03-23 08:00:00 5.5 3 Nordeste 9 Sur 0 -- -- 90
2019-03-23 07:00:00 5.1 4 Este 12 Sudeste 0 -- -- 88
2019-03-23 06:00:00 5.1 6 Sudeste 10 Este 0 -- -- 90
2019-03-23 05:00:00 4.7 4 Sudeste 9 Este 0 -- -- 89
2019-03-23 04:00:00 5.5 3 Sudeste 9 Este 0 -- -- 88
2019-03-23 03:00:00 6.6 4 Sudeste 9 Sudeste 0 -- -- 84
2019-03-23 02:00:00 7.8 0 Calma 10 Nordeste 0 -- -- 82
2019-03-23 01:00:00 8.2 4 Sudeste 9 Sudeste 0 -- -- 82
2019-03-23 00:00:00 9.8 8 Sudeste 18 Sudeste 0 -- -- 77
2019-03-22 23:00:00 10.9 12 Sudeste 25 Sudeste 0 -- -- 74
2019-03-22 22:00:00 11.7 15 Sudeste 26 Sudeste 0 -- -- 68
2019-03-22 21:00:00 12.6 12 Sudeste 26 Sudeste 0 -- -- 59
2019-03-22 20:00:00 14.2 15 Sur 25 Sudeste 0 -- -- 56
2019-03-22 19:00:00 17.2 13 Sur 24 Sur 0 -- -- 47
2019-03-22 18:00:00 19.9 5 Sur 20 Norte 0 -- -- 37
2019-03-22 17:00:00 19.6 3 Norte 15 Norte 0 -- -- 31
2019-03-22 16:00:00 19.5 5 Oeste 18 Norte 0 -- -- 30
2019-03-22 15:00:00 18.5 9 Noroeste 19 Norte 0 -- -- 35
2019-03-22 14:00:00 18.3 6 Oeste 18 Sudeste 0 -- -- 36
2019-03-22 13:00:00 16.7 6 Sudeste 19 Sur 0 -- -- 35
2019-03-22 12:00:00 16.3 5 Sudeste 19 Nordeste 0 -- -- 40
2019-03-22 11:00:00 14.3 9 Nordeste 15 Nordeste 0 -- -- 42
2019-03-22 10:00:00 12.9 3 Este 9 Este 0 -- -- 49
2019-03-22 09:00:00 9.9 2 Nordeste 8 Este 0 -- -- 69
2019-03-22 08:00:00 4.5 4 Este 9 Este 0 -- -- 82
2019-03-22 07:00:00 4.7 7 Sudeste 10 Sudeste 0 -- -- 81
2019-03-22 06:00:00 3.6 3 Este 10 Sudeste 0 -- -- 84
2019-03-22 05:00:00 5.2 4 Este 8 Este 0 -- -- 79
2019-03-22 04:00:00 5.5 3 Este 11 Este 0 -- -- 80
2019-03-22 03:00:00 5.6 5 Este 9 Sudeste 0 -- -- 81
2019-03-22 02:00:00 6.8 0 Calma 7 Nordeste 0 -- -- 77
2019-03-22 01:00:00 7.9 5 Nordeste 18 Sudeste 0 -- -- 72
2019-03-22 00:00:00 9.4 12 Sudeste 22 Sudeste 0 -- -- 68
2019-03-21 23:00:00 9.8 12 Sudeste 20 Sur 0 -- -- 66
2019-03-21 22:00:00 10.2 9 Sudeste 21 Sur 0 -- -- 66
2019-03-21 21:00:00 11 11 Sudeste 23 Sur 0 -- -- 61
2019-03-21 20:00:00 12.4 14 Sur 26 Sur 0 -- -- 54
2019-03-21 19:00:00 14.8 13 Sur 27 Sur 0 -- -- 45
2019-03-21 18:00:00 16.6 19 Sur 33 Sur 0 -- -- 37
2019-03-21 17:00:00 18.1 7 Norte 26 Norte 0 -- -- 26
2019-03-21 16:00:00 18 17 Norte 39 Este 0 -- -- 25
2019-03-21 15:00:00 17.4 12 Nordeste 30 Nordeste 0 -- -- 30
2019-03-21 14:00:00 16.9 15 Norte 30 Nordeste 0 -- -- 33
2019-03-21 13:00:00 15.8 13 Nordeste 29 Norte 0 -- -- 33
2019-03-21 12:00:00 14.8 17 Norte 31 Nordeste 0 -- -- 36
2019-03-21 11:00:00 14.6 18 Este 36 Nordeste 0 -- -- 33
2019-03-21 10:00:00 13.1 9 Nordeste 17 Este 0 -- -- 38
2019-03-21 09:00:00 11 6 Este 14 Este 0 -- -- 45
2019-03-21 08:00:00 7.1 10 Este 19 Este 0 -- -- 70
2019-03-21 07:00:00 4.3 6 Nordeste 12 Este 0 -- -- 85
2019-03-21 06:00:00 3.9 3 Este 9 Este 0 -- -- 85
2019-03-21 05:00:00 6.2 2 Nordeste 6 Norte 0 -- -- 82
2019-03-21 04:00:00 7.1 3 Nordeste 14 Este 0 -- -- 80
2019-03-21 03:00:00 8.3 11 Sudeste 18 Sudeste 0 -- -- 76
2019-03-21 02:00:00 9.3 12 Sudeste 19 Sudeste 0 -- -- 72
2019-03-21 01:00:00 10.1 13 Sudeste 24 Sudeste 0 -- -- 69
2019-03-21 00:00:00 10.2 14 Sudeste 24 Sudeste 0 -- -- 71